sensor_id;sensor_type;location;lat;lon;timestamp;pressure;altitude;pressure_sealevel;temperature;humidity
29383;BME280;16365;51.598;7.668;2023-02-28T00:00:53;102386.47;;;6.73;39.27
29383;BME280;16365;51.598;7.668;2023-02-28T00:03:20;102386.97;;;6.69;39.25
29383;BME280;16365;51.598;7.668;2023-02-28T00:05:46;102384.72;;;6.66;39.27
29383;BME280;16365;51.598;7.668;2023-02-28T00:08:13;102393.28;;;6.65;39.34
29383;BME280;16365;51.598;7.668;2023-02-28T00:10:39;102393.78;;;6.62;38.88
29383;BME280;16365;51.598;7.668;2023-02-28T00:13:06;102388.53;;;6.60;39.51
29383;BME280;16365;51.598;7.668;2023-02-28T00:15:33;102391.56;;;6.59;38.93
29383;BME280;16365;51.598;7.668;2023-02-28T00:18:01;102386.56;;;6.56;39.51
29383;BME280;16365;51.598;7.668;2023-02-28T00:20:28;102395.09;;;6.54;39.67
29383;BME280;16365;51.598;7.668;2023-02-28T00:22:55;102386.25;;;6.52;39.29
29383;BME280;16365;51.598;7.668;2023-02-28T00:25:24;102388.44;;;6.50;39.70
29383;BME280;16365;51.598;7.668;2023-02-28T00:27:52;102382.38;;;6.48;39.64
29383;BME280;16365;51.598;7.668;2023-02-28T00:30:21;102389.22;;;6.46;39.61
29383;BME280;16365;51.598;7.668;2023-02-28T00:32:48;102390.31;;;6.44;39.52
29383;BME280;16365;51.598;7.668;2023-02-28T00:35:14;102384.22;;;6.42;39.61
29383;BME280;16365;51.598;7.668;2023-02-28T00:37:42;102391.09;;;6.40;39.41
29383;BME280;16365;51.598;7.668;2023-02-28T00:40:09;102388.84;;;6.37;39.60
29383;BME280;16365;51.598;7.668;2023-02-28T00:42:37;102387.44;;;6.34;39.55
29383;BME280;16365;51.598;7.668;2023-02-28T00:45:04;102396.22;;;6.31;39.78
29383;BME280;16365;51.598;7.668;2023-02-28T00:47:32;102386.56;;;6.29;39.67
29383;BME280;16365;51.598;7.668;2023-02-28T00:49:59;102383.47;;;6.25;39.78
29383;BME280;16365;51.598;7.668;2023-02-28T00:52:25;102385.09;;;6.21;39.89
29383;BME280;16365;51.598;7.668;2023-02-28T00:54:52;102383.09;;;6.16;39.69
29383;BME280;16365;51.598;7.668;2023-02-28T00:57:18;102384.44;;;6.14;40.15
29383;BME280;16365;51.598;7.668;2023-02-28T00:59:44;102384.13;;;6.10;40.04
29383;BME280;16365;51.598;7.668;2023-02-28T01:02:11;102379.41;;;6.06;40.03
29383;BME280;16365;51.598;7.668;2023-02-28T01:04:37;102389.25;;;6.02;40.25
29383;BME280;16365;51.598;7.668;2023-02-28T01:07:05;102386.44;;;5.97;39.93
29383;BME280;16365;51.598;7.668;2023-02-28T01:09:32;102381.69;;;5.92;40.21
29383;BME280;16365;51.598;7.668;2023-02-28T01:11:58;102375.84;;;5.88;39.96
29383;BME280;16365;51.598;7.668;2023-02-28T01:14:25;102376.59;;;5.84;40.28
29383;BME280;16365;51.598;7.668;2023-02-28T01:16:52;102386.22;;;5.81;40.09
29383;BME280;16365;51.598;7.668;2023-02-28T01:19:18;102384.22;;;5.77;40.12
29383;BME280;16365;51.598;7.668;2023-02-28T01:21:45;102385.81;;;5.73;40.56
29383;BME280;16365;51.598;7.668;2023-02-28T01:24:12;102390.16;;;5.68;40.59
29383;BME280;16365;51.598;7.668;2023-02-28T01:26:38;102387.34;;;5.63;40.24
29383;BME280;16365;51.598;7.668;2023-02-28T01:29:05;102387.00;;;5.60;40.77
29383;BME280;16365;51.598;7.668;2023-02-28T01:31:31;102389.44;;;5.56;40.58
29383;BME280;16365;51.598;7.668;2023-02-28T01:33:58;102380.03;;;5.52;40.96
29383;BME280;16365;51.598;7.668;2023-02-28T01:36:25;102380.78;;;5.48;40.68
29383;BME280;16365;51.598;7.668;2023-02-28T01:38:52;102382.09;;;5.45;40.49
29383;BME280;16365;51.598;7.668;2023-02-28T01:41:23;102379.28;;;5.40;40.79
29383;BME280;16365;51.598;7.668;2023-02-28T01:44:03;102374.88;;;5.39;41.62
29383;BME280;16365;51.598;7.668;2023-02-28T01:46:32;102371.56;;;5.37;40.95
29383;BME280;16365;51.598;7.668;2023-02-28T01:49:07;102374.81;;;5.34;41.23
29383;BME280;16365;51.598;7.668;2023-02-28T01:51:46;102381.06;;;5.29;41.76
29383;BME280;16365;51.598;7.668;2023-02-28T01:54:25;102373.28;;;5.26;41.60
29383;BME280;16365;51.598;7.668;2023-02-28T01:57:04;102377.41;;;5.24;41.55
29383;BME280;16365;51.598;7.668;2023-02-28T01:59:39;102382.28;;;5.22;41.55
29383;BME280;16365;51.598;7.668;2023-02-28T02:02:18;102377.06;;;5.20;41.34
29383;BME280;16365;51.598;7.668;2023-02-28T02:04:58;102372.31;;;5.15;41.60
29383;BME280;16365;51.598;7.668;2023-02-28T02:07:31;102368.16;;;5.13;41.64
29383;BME280;16365;51.598;7.668;2023-02-28T02:10:02;102368.41;;;5.11;41.28
29383;BME280;16365;51.598;7.668;2023-02-28T02:12:59;102372.16;;;5.05;41.57
29383;BME280;16365;51.598;7.668;2023-02-28T02:21:05;102358.06;;;5.02;41.97
29383;BME280;16365;51.598;7.668;2023-02-28T02:27:18;102364.66;;;5.01;42.32
29383;BME280;16365;51.598;7.668;2023-02-28T02:38:03;102359.34;;;4.94;42.27
29383;BME280;16365;51.598;7.668;2023-02-28T02:40:45;102365.06;;;4.93;41.64
29383;BME280;16365;51.598;7.668;2023-02-28T02:43:18;102365.06;;;4.93;41.84
29383;BME280;16365;51.598;7.668;2023-02-28T02:45:49;102363.66;;;4.90;41.74
29383;BME280;16365;51.598;7.668;2023-02-28T02:48:19;102362.84;;;4.89;41.22
29383;BME280;16365;51.598;7.668;2023-02-28T02:50:54;102371.56;;;4.86;41.66
29383;BME280;16365;51.598;7.668;2023-02-28T02:53:30;102357.00;;;4.86;41.74
29383;BME280;16365;51.598;7.668;2023-02-28T02:55:59;102365.50;;;4.84;41.68
29383;BME280;16365;51.598;7.668;2023-02-28T02:58:32;102362.13;;;4.82;41.95
29383;BME280;16365;51.598;7.668;2023-02-28T03:01:01;102362.41;;;4.81;42.03
29383;BME280;16365;51.598;7.668;2023-02-28T03:03:30;102366.47;;;4.78;41.60
29383;BME280;16365;51.598;7.668;2023-02-28T03:06:00;102366.72;;;4.77;41.59
29383;BME280;16365;51.598;7.668;2023-02-28T03:08:29;102356.00;;;4.75;42.27
29383;BME280;16365;51.598;7.668;2023-02-28T03:10:58;102358.13;;;4.73;41.87
29383;BME280;16365;51.598;7.668;2023-02-28T03:13:50;102363.81;;;4.67;42.11
29383;BME280;16365;51.598;7.668;2023-02-28T03:19:25;102357.66;;;4.59;42.65
29383;BME280;16365;51.598;7.668;2023-02-28T03:22:23;102358.13;;;4.56;42.41
29383;BME280;16365;51.598;7.668;2023-02-28T03:25:27;102357.53;;;4.54;42.20
29383;BME280;16365;51.598;7.668;2023-02-28T03:28:00;102362.19;;;4.54;42.32
29383;BME280;16365;51.598;7.668;2023-02-28T03:30:52;102355.28;;;4.51;42.59
29383;BME280;16365;51.598;7.668;2023-02-28T03:33:30;102361.25;;;4.48;42.27
29383;BME280;16365;51.598;7.668;2023-02-28T03:36:18;102363.44;;;4.46;42.69
29383;BME280;16365;51.598;7.668;2023-02-28T03:39:03;102362.25;;;4.42;42.53
29383;BME280;16365;51.598;7.668;2023-02-28T03:41:36;102367.19;;;4.40;41.76
29383;BME280;16365;51.598;7.668;2023-02-28T03:44:14;102371.50;;;4.36;42.21
29383;BME280;16365;51.598;7.668;2023-02-28T03:46:48;102377.19;;;4.34;42.31
29383;BME280;16365;51.598;7.668;2023-02-28T03:49:21;102373.88;;;4.32;42.20
29383;BME280;16365;51.598;7.668;2023-02-28T03:51:49;102379.84;;;4.29;41.91
29383;BME280;16365;51.598;7.668;2023-02-28T03:54:26;102374.63;;;4.28;42.60
29383;BME280;16365;51.598;7.668;2023-02-28T03:59:32;102368.28;;;4.27;42.32
29383;BME280;16365;51.598;7.668;2023-02-28T04:02:01;102367.69;;;4.25;42.36
29383;BME280;16365;51.598;7.668;2023-02-28T04:04:28;102366.84;;;4.25;42.00
29383;BME280;16365;51.598;7.668;2023-02-28T04:07:03;102370.13;;;4.22;42.33
29383;BME280;16365;51.598;7.668;2023-02-28T04:09:31;102377.50;;;4.21;42.36
29383;BME280;16365;51.598;7.668;2023-02-28T04:11:58;102374.78;;;4.21;42.32
29383;BME280;16365;51.598;7.668;2023-02-28T04:14:25;102366.53;;;4.21;42.31
29383;BME280;16365;51.598;7.668;2023-02-28T04:16:51;102378.00;;;4.18;42.37
29383;BME280;16365;51.598;7.668;2023-02-28T04:19:18;102378.25;;;4.17;42.39
29383;BME280;16365;51.598;7.668;2023-02-28T04:21:50;102377.91;;;4.13;42.61
29383;BME280;16365;51.598;7.668;2023-02-28T04:24:21;102381.72;;;4.12;42.04
29383;BME280;16365;51.598;7.668;2023-02-28T04:26:50;102381.13;;;4.10;42.47
29383;BME280;16365;51.598;7.668;2023-02-28T04:29:20;102381.94;;;4.10;42.45
29383;BME280;16365;51.598;7.668;2023-02-28T04:31:47;102382.19;;;4.09;42.67
29383;BME280;16365;51.598;7.668;2023-02-28T04:34:14;102377.78;;;4.08;42.63
29383;BME280;16365;51.598;7.668;2023-02-28T04:36:41;102386.84;;;4.08;42.32
29383;BME280;16365;51.598;7.668;2023-02-28T04:39:07;102380.78;;;4.06;42.59
29383;BME280;16365;51.598;7.668;2023-02-28T04:41:35;102380.19;;;4.04;42.44
29383;BME280;16365;51.598;7.668;2023-02-28T04:44:02;102378.25;;;4.05;42.80
29383;BME280;16365;51.598;7.668;2023-02-28T04:46:30;102382.09;;;4.04;42.56
29383;BME280;16365;51.598;7.668;2023-02-28T04:48:56;102380.19;;;4.04;42.52
29383;BME280;16365;51.598;7.668;2023-02-28T04:51:23;102384.59;;;4.05;42.36
29383;BME280;16365;51.598;7.668;2023-02-28T04:53:49;102375.78;;;4.03;42.47
29383;BME280;16365;51.598;7.668;2023-02-28T04:56:17;102375.19;;;4.01;42.33
29383;BME280;16365;51.598;7.668;2023-02-28T04:58:44;102386.19;;;4.01;42.03
29383;BME280;16365;51.598;7.668;2023-02-28T05:01:34;102388.56;;;3.98;42.93
29383;BME280;16365;51.598;7.668;2023-02-28T05:04:03;102393.53;;;4.01;42.35
29383;BME280;16365;51.598;7.668;2023-02-28T05:06:31;102389.97;;;4.00;42.74
29383;BME280;16365;51.598;7.668;2023-02-28T05:09:00;102391.41;;;4.03;42.28
29383;BME280;16365;51.598;7.668;2023-02-28T05:11:32;102392.97;;;3.99;42.17
29383;BME280;16365;51.598;7.668;2023-02-28T05:14:04;102382.81;;;3.99;42.44
29383;BME280;16365;51.598;7.668;2023-02-28T05:16:31;102387.47;;;3.99;42.26
29383;BME280;16365;51.598;7.668;2023-02-28T05:19:01;102386.66;;;3.98;42.22
29383;BME280;16365;51.598;7.668;2023-02-28T05:21:32;102398.72;;;3.97;42.05
29383;BME280;16365;51.598;7.668;2023-02-28T05:24:01;102403.38;;;3.97;42.10
29383;BME280;16365;51.598;7.668;2023-02-28T05:26:29;102394.28;;;3.96;42.07
29383;BME280;16365;51.598;7.668;2023-02-28T05:28:56;102390.69;;;3.96;42.38
29383;BME280;16365;51.598;7.668;2023-02-28T05:31:28;102394.53;;;3.95;42.19
29383;BME280;16365;51.598;7.668;2023-02-28T05:33:55;102390.94;;;3.94;42.28
29383;BME280;16365;51.598;7.668;2023-02-28T05:36:24;102392.03;;;3.93;42.21
29383;BME280;16365;51.598;7.668;2023-02-28T05:38:51;102397.78;;;3.92;42.30
29383;BME280;16365;51.598;7.668;2023-02-28T05:41:19;102399.06;;;3.89;41.95
29383;BME280;16365;51.598;7.668;2023-02-28T05:43:46;102403.72;;;3.89;42.69
29383;BME280;16365;51.598;7.668;2023-02-28T05:46:13;102402.66;;;3.90;42.12
29383;BME280;16365;51.598;7.668;2023-02-28T05:48:42;102407.56;;;3.88;42.31
29383;BME280;16365;51.598;7.668;2023-02-28T05:51:09;102416.00;;;3.86;42.00
29383;BME280;16365;51.598;7.668;2023-02-28T05:53:38;102408.28;;;3.83;42.38
29383;BME280;16365;51.598;7.668;2023-02-28T05:56:07;102412.94;;;3.82;42.09
29383;BME280;16365;51.598;7.668;2023-02-28T05:58:33;102413.97;;;3.81;41.99
29383;BME280;16365;51.598;7.668;2023-02-28T06:03:50;102416.16;;;3.79;42.21
29383;BME280;16365;51.598;7.668;2023-02-28T06:06:17;102417.22;;;3.78;42.38
29383;BME280;16365;51.598;7.668;2023-02-28T06:08:43;102424.84;;;3.76;42.50
29383;BME280;16365;51.598;7.668;2023-02-28T06:11:10;102425.94;;;3.75;42.39
29383;BME280;16365;51.598;7.668;2023-02-28T06:13:37;102425.09;;;3.75;42.21
29383;BME280;16365;51.598;7.668;2023-02-28T06:16:03;102422.59;;;3.73;42.37
29383;BME280;16365;51.598;7.668;2023-02-28T06:18:30;102421.78;;;3.73;42.30
29383;BME280;16365;51.598;7.668;2023-02-28T06:20:57;102429.13;;;3.72;42.50
29383;BME280;16365;51.598;7.668;2023-02-28T06:23:23;102430.22;;;3.71;42.27
29383;BME280;16365;51.598;7.668;2023-02-28T06:25:50;102430.22;;;3.71;42.42
29383;BME280;16365;51.598;7.668;2023-02-28T06:28:16;102431.88;;;3.72;42.40
29383;BME280;16365;51.598;7.668;2023-02-28T06:30:43;102437.38;;;3.72;42.46
29383;BME280;16365;51.598;7.668;2023-02-28T06:33:11;102422.59;;;3.73;42.51
29383;BME280;16365;51.598;7.668;2023-02-28T06:35:38;102434.41;;;3.74;42.66
29383;BME280;16365;51.598;7.668;2023-02-28T06:38:04;102431.66;;;3.74;42.79
29383;BME280;16365;51.598;7.668;2023-02-28T06:40:30;102431.66;;;3.74;42.47
29383;BME280;16365;51.598;7.668;2023-02-28T06:43:00;102437.16;;;3.74;42.61
29383;BME280;16365;51.598;7.668;2023-02-28T06:45:26;102437.38;;;3.72;42.70
29383;BME280;16365;51.598;7.668;2023-02-28T06:47:53;102437.38;;;3.72;42.66
29383;BME280;16365;51.598;7.668;2023-02-28T06:50:20;102437.38;;;3.72;42.48
29383;BME280;16365;51.598;7.668;2023-02-28T06:52:46;102437.63;;;3.71;42.40
29383;BME280;16365;51.598;7.668;2023-02-28T06:55:13;102435.72;;;3.71;42.35
29383;BME280;16365;51.598;7.668;2023-02-28T06:57:40;102446.69;;;3.71;42.76
29383;BME280;16365;51.598;7.668;2023-02-28T07:00:08;102443.94;;;3.71;42.67
29383;BME280;16365;51.598;7.668;2023-02-28T07:02:36;102442.84;;;3.72;42.83
29383;BME280;16365;51.598;7.668;2023-02-28T07:05:05;102448.13;;;3.74;42.79
29383;BME280;16365;51.598;7.668;2023-02-28T07:07:32;102445.97;;;3.76;42.75
29383;BME280;16365;51.598;7.668;2023-02-28T07:09:58;102454.81;;;3.78;42.82
29383;BME280;16365;51.598;7.668;2023-02-28T07:12:25;102450.16;;;3.78;42.74
29383;BME280;16365;51.598;7.668;2023-02-28T07:14:51;102451.81;;;3.79;42.94
29383;BME280;16365;51.598;7.668;2023-02-28T07:17:18;102462.06;;;3.84;42.72
29383;BME280;16365;51.598;7.668;2023-02-28T07:19:44;102459.91;;;3.86;42.70
29383;BME280;16365;51.598;7.668;2023-02-28T07:22:10;102460.25;;;3.90;42.76
29383;BME280;16365;51.598;7.668;2023-02-28T07:24:38;102463.38;;;3.93;43.01
29383;BME280;16365;51.598;7.668;2023-02-28T07:27:05;102465.97;;;4.00;43.21
29383;BME280;16365;51.598;7.668;2023-02-28T07:29:32;102476.84;;;4.06;43.16
29383;BME280;16365;51.598;7.668;2023-02-28T07:31:58;102480.28;;;4.13;43.32
29383;BME280;16365;51.598;7.668;2023-02-28T07:34:25;102474.66;;;4.20;42.96
29383;BME280;16365;51.598;7.668;2023-02-28T07:36:53;102467.97;;;4.28;43.30
29383;BME280;16365;51.598;7.668;2023-02-28T07:39:21;102467.59;;;4.36;43.33
29383;BME280;16365;51.598;7.668;2023-02-28T07:41:47;102464.69;;;4.43;43.14
29383;BME280;16365;51.598;7.668;2023-02-28T07:44:14;102469.19;;;4.49;42.84
29383;BME280;16365;51.598;7.668;2023-02-28T07:46:40;102464.63;;;4.54;43.04
29383;BME280;16365;51.598;7.668;2023-02-28T07:49:07;102466.44;;;4.60;43.06
29383;BME280;16365;51.598;7.668;2023-02-28T07:51:33;102466.03;;;4.69;42.71
29383;BME280;16365;51.598;7.668;2023-02-28T07:54:00;102456.00;;;4.74;42.79
29383;BME280;16365;51.598;7.668;2023-02-28T07:56:26;102464.63;;;4.83;42.53
29383;BME280;16365;51.598;7.668;2023-02-28T07:58:53;102459.00;;;4.89;42.90
29383;BME280;16365;51.598;7.668;2023-02-28T08:01:20;102464.94;;;4.98;42.77
29383;BME280;16365;51.598;7.668;2023-02-28T08:03:47;102470.03;;;5.06;42.77
29383;BME280;16365;51.598;7.668;2023-02-28T08:06:19;102464.13;;;5.14;42.76
29383;BME280;16365;51.598;7.668;2023-02-28T08:08:46;102467.31;;;5.23;42.33
29383;BME280;16365;51.598;7.668;2023-02-28T08:11:14;102470.47;;;5.32;42.16
29383;BME280;16365;51.598;7.668;2023-02-28T08:13:40;102466.47;;;5.39;42.15
29383;BME280;16365;51.598;7.668;2023-02-28T08:16:09;102463.31;;;5.48;42.06
29383;BME280;16365;51.598;7.668;2023-02-28T08:18:35;102469.47;;;5.55;41.35
29383;BME280;16365;51.598;7.668;2023-02-28T08:21:07;102463.22;;;5.59;41.44
29383;BME280;16365;51.598;7.668;2023-02-28T08:23:33;102464.44;;;5.68;41.40
29383;BME280;16365;51.598;7.668;2023-02-28T08:25:59;102472.53;;;5.75;41.19
29383;BME280;16365;51.598;7.668;2023-02-28T08:28:26;102479.53;;;5.83;41.15
29383;BME280;16365;51.598;7.668;2023-02-28T08:30:53;102475.75;;;5.89;41.11
29383;BME280;16365;51.598;7.668;2023-02-28T08:33:20;102476.69;;;5.95;41.13
29383;BME280;16365;51.598;7.668;2023-02-28T08:35:46;102473.78;;;6.01;40.73
29383;BME280;16365;51.598;7.668;2023-02-28T08:38:13;102476.31;;;6.08;40.88
29383;BME280;16365;51.598;7.668;2023-02-28T08:40:39;102481.66;;;6.14;41.17
29383;BME280;16365;51.598;7.668;2023-02-28T08:43:06;102475.97;;;6.21;40.70
29383;BME280;16365;51.598;7.668;2023-02-28T08:45:33;102474.69;;;6.29;41.28
29383;BME280;16365;51.598;7.668;2023-02-28T08:47:59;102467.88;;;6.36;40.66
29383;BME280;16365;51.598;7.668;2023-02-28T08:50:26;102469.38;;;6.44;40.79
29383;BME280;16365;51.598;7.668;2023-02-28T08:52:52;102472.75;;;6.51;40.69
29383;BME280;16365;51.598;7.668;2023-02-28T08:55:19;102464.31;;;6.58;40.65
29383;BME280;16365;51.598;7.668;2023-02-28T08:57:47;102466.34;;;6.67;40.30
29383;BME280;16365;51.598;7.668;2023-02-28T09:00:13;102472.47;;;6.75;40.06
29383;BME280;16365;51.598;7.668;2023-02-28T09:02:40;102470.09;;;6.83;39.82
29383;BME280;16365;51.598;7.668;2023-02-28T09:05:09;102467.38;;;6.88;40.00
29383;BME280;16365;51.598;7.668;2023-02-28T09:07:36;102468.00;;;6.95;39.24
29383;BME280;16365;51.598;7.668;2023-02-28T09:10:03;102454.84;;;7.03;39.39
29383;BME280;16365;51.598;7.668;2023-02-28T09:12:33;102472.00;;;7.10;38.85
29383;BME280;16365;51.598;7.668;2023-02-28T09:15:01;102466.84;;;7.18;39.28
29383;BME280;16365;51.598;7.668;2023-02-28T09:17:27;102458.34;;;7.25;39.12
29383;BME280;16365;51.598;7.668;2023-02-28T09:19:56;102459.81;;;7.33;38.58
29383;BME280;16365;51.598;7.668;2023-02-28T09:22:23;102455.72;;;7.40;38.77
29383;BME280;16365;51.598;7.668;2023-02-28T09:24:50;102463.78;;;7.47;38.23
29383;BME280;16365;51.598;7.668;2023-02-28T09:27:16;102465.47;;;7.53;38.58
29383;BME280;16365;51.598;7.668;2023-02-28T09:29:43;102462.22;;;7.61;38.44
29383;BME280;16365;51.598;7.668;2023-02-28T09:32:09;102457.28;;;7.68;38.20
29383;BME280;16365;51.598;7.668;2023-02-28T09:34:36;102461.78;;;7.75;37.85
29383;BME280;16365;51.598;7.668;2023-02-28T09:37:03;102464.88;;;7.83;38.10
29383;BME280;16365;51.598;7.668;2023-02-28T09:39:30;102469.31;;;7.89;38.10
29383;BME280;16365;51.598;7.668;2023-02-28T09:41:57;102459.69;;;7.97;37.86
29383;BME280;16365;51.598;7.668;2023-02-28T09:44:31;102463.59;;;8.01;36.81
29383;BME280;16365;51.598;7.668;2023-02-28T09:49:56;102471.69;;;8.18;37.30
29383;BME280;16365;51.598;7.668;2023-02-28T09:52:29;102465.91;;;8.24;37.22
29383;BME280;16365;51.598;7.668;2023-02-28T09:55:04;102469.81;;;8.29;36.62
29383;BME280;16365;51.598;7.668;2023-02-28T09:57:44;102463.25;;;8.40;37.66
29383;BME280;16365;51.598;7.668;2023-02-28T10:00:22;102474.63;;;8.48;36.98
29383;BME280;16365;51.598;7.668;2023-02-28T10:08:39;102465.34;;;8.90;36.24
29383;BME280;16365;51.598;7.668;2023-02-28T10:11:16;102467.56;;;9.04;36.04
29383;BME280;16365;51.598;7.668;2023-02-28T10:13:57;102449.06;;;9.14;35.33
29383;BME280;16365;51.598;7.668;2023-02-28T10:16:40;102442.41;;;9.25;35.04
29383;BME280;16365;51.598;7.668;2023-02-28T10:19:24;102455.13;;;9.32;34.50
29383;BME280;16365;51.598;7.668;2023-02-28T10:22:01;102442.94;;;9.38;34.40
29383;BME280;16365;51.598;7.668;2023-02-28T10:24:50;102443.53;;;9.40;34.10
29383;BME280;16365;51.598;7.668;2023-02-28T10:27:21;102443.50;;;9.45;35.34
29383;BME280;16365;51.598;7.668;2023-02-28T10:29:59;102438.81;;;9.45;34.30
29383;BME280;16365;51.598;7.668;2023-02-28T10:32:29;102432.44;;;9.50;34.71
29383;BME280;16365;51.598;7.668;2023-02-28T10:37:27;102436.84;;;9.56;35.04
29383;BME280;16365;51.598;7.668;2023-02-28T10:39:54;102441.00;;;9.59;35.09
29383;BME280;16365;51.598;7.668;2023-02-28T10:42:27;102442.66;;;9.60;34.30
29383;BME280;16365;51.598;7.668;2023-02-28T10:45:13;102440.44;;;9.62;33.84
29383;BME280;16365;51.598;7.668;2023-02-28T10:47:55;102433.81;;;9.68;34.01
29383;BME280;16365;51.598;7.668;2023-02-28T10:53:10;102434.88;;;9.67;30.36
29383;BME280;16365;51.598;7.668;2023-02-28T10:55:41;102429.09;;;9.73;33.70
29383;BME280;16365;51.598;7.668;2023-02-28T10:58:28;102423.53;;;9.73;32.10
29383;BME280;16365;51.598;7.668;2023-02-28T11:00:55;102430.19;;;9.77;33.24
29383;BME280;16365;51.598;7.668;2023-02-28T11:03:30;102429.59;;;9.81;32.68
29383;BME280;16365;51.598;7.668;2023-02-28T11:05:58;102433.78;;;9.83;32.94
29383;BME280;16365;51.598;7.668;2023-02-28T11:08:24;102434.03;;;9.87;32.78
29383;BME280;16365;51.598;7.668;2023-02-28T11:10:56;102434.59;;;9.89;32.30
29383;BME280;16365;51.598;7.668;2023-02-28T11:13:32;102427.66;;;9.91;32.70
29383;BME280;16365;51.598;7.668;2023-02-28T11:16:02;102422.38;;;9.95;32.63
29383;BME280;16365;51.598;7.668;2023-02-28T11:18:52;102430.66;;;10.00;33.81
29383;BME280;16365;51.598;7.668;2023-02-28T11:23:59;102423.16;;;10.05;31.92
29383;BME280;16365;51.598;7.668;2023-02-28T11:26:45;102426.50;;;10.02;30.41
29383;BME280;16365;51.598;7.668;2023-02-28T11:31:43;102419.28;;;10.07;33.23
29383;BME280;16365;51.598;7.668;2023-02-28T11:34:24;102404.63;;;10.06;32.31
29383;BME280;16365;51.598;7.668;2023-02-28T11:36:54;102420.94;;;10.13;33.40
29383;BME280;16365;51.598;7.668;2023-02-28T11:39:20;102421.19;;;10.16;33.87
29383;BME280;16365;51.598;7.668;2023-02-28T11:52:52;102412.91;;;10.71;32.46
29383;BME280;16365;51.598;7.668;2023-02-28T11:55:35;102413.41;;;10.78;31.10
29383;BME280;16365;51.598;7.668;2023-02-28T12:04:24;102404.69;;;10.95;32.15
29383;BME280;16365;51.598;7.668;2023-02-28T12:06:58;102406.34;;;10.96;32.25
29383;BME280;16365;51.598;7.668;2023-02-28T12:09:40;102396.94;;;10.92;32.20
29383;BME280;16365;51.598;7.668;2023-02-28T12:12:29;102397.53;;;10.89;32.77
29383;BME280;16365;51.598;7.668;2023-02-28T12:20:58;102388.41;;;10.78;32.31
29383;BME280;16365;51.598;7.668;2023-02-28T12:26:38;102381.81;;;10.74;32.64
29383;BME280;16365;51.598;7.668;2023-02-28T12:29:14;102380.13;;;10.73;31.94
29383;BME280;16365;51.598;7.668;2023-02-28T12:31:49;102377.09;;;10.74;32.00
29383;BME280;16365;51.598;7.668;2023-02-28T12:34:23;102368.19;;;10.77;33.19
29383;BME280;16365;51.598;7.668;2023-02-28T12:36:53;102367.34;;;10.77;32.79
29383;BME280;16365;51.598;7.668;2023-02-28T12:39:36;102367.94;;;10.74;32.65
29383;BME280;16365;51.598;7.668;2023-02-28T12:42:28;102366.03;;;10.69;32.25
29383;BME280;16365;51.598;7.668;2023-02-28T12:45:01;102358.59;;;10.65;32.06
29383;BME280;16365;51.598;7.668;2023-02-28T12:47:29;102356.94;;;10.64;32.95
29383;BME280;16365;51.598;7.668;2023-02-28T12:50:08;102360.78;;;10.63;32.89
29383;BME280;16365;51.598;7.668;2023-02-28T12:52:58;102354.75;;;10.55;31.05
29383;BME280;16365;51.598;7.668;2023-02-28T12:55:48;102351.69;;;10.57;32.01
29383;BME280;16365;51.598;7.668;2023-02-28T12:58:36;102343.06;;;10.59;32.63
29383;BME280;16365;51.598;7.668;2023-02-28T13:09:13;102331.97;;;10.64;33.04
29383;BME280;16365;51.598;7.668;2023-02-28T13:11:49;102330.84;;;10.65;32.78
29383;BME280;16365;51.598;7.668;2023-02-28T13:14:23;102327.47;;;10.68;32.83
29383;BME280;16365;51.598;7.668;2023-02-28T13:16:57;102325.53;;;10.68;32.55
29383;BME280;16365;51.598;7.668;2023-02-28T13:19:26;102318.28;;;10.72;32.81
29383;BME280;16365;51.598;7.668;2023-02-28T13:21:54;102324.38;;;10.74;32.97
29383;BME280;16365;51.598;7.668;2023-02-28T13:29:40;102319.63;;;10.80;32.32
29383;BME280;16365;51.598;7.668;2023-02-28T13:34:37;102313.78;;;10.81;32.71
29383;BME280;16365;51.598;7.668;2023-02-28T13:39:51;102315.44;;;10.82;32.54
29383;BME280;16365;51.598;7.668;2023-02-28T13:47:30;102305.19;;;10.83;32.53
29383;BME280;16365;51.598;7.668;2023-02-28T13:53:07;102295.78;;;10.79;31.97
29383;BME280;16365;51.598;7.668;2023-02-28T13:56:07;102299.94;;;10.76;31.92
29383;BME280;16365;51.598;7.668;2023-02-28T13:58:56;102305.50;;;10.76;31.72
29383;BME280;16365;51.598;7.668;2023-02-28T14:01:55;102299.41;;;10.74;31.55
29383;BME280;16365;51.598;7.668;2023-02-28T14:04:44;102290.84;;;10.71;31.85
29383;BME280;16365;51.598;7.668;2023-02-28T14:07:22;102290.53;;;10.72;31.24
29383;BME280;16365;51.598;7.668;2023-02-28T14:10:15;102304.16;;;10.74;31.15
29383;BME280;16365;51.598;7.668;2023-02-28T14:13:03;102292.75;;;10.75;31.22
29383;BME280;16365;51.598;7.668;2023-02-28T14:18:16;102296.25;;;10.86;32.12
29383;BME280;16365;51.598;7.668;2023-02-28T14:20:45;102295.69;;;10.89;31.77
29383;BME280;16365;51.598;7.668;2023-02-28T14:31:45;102282.78;;;11.03;31.71
29383;BME280;16365;51.598;7.668;2023-02-28T14:37:15;102284.38;;;11.10;32.00
29383;BME280;16365;51.598;7.668;2023-02-28T14:39:46;102276.31;;;11.13;32.54
29383;BME280;16365;51.598;7.668;2023-02-28T14:42:34;102291.84;;;11.14;31.75
29383;BME280;16365;51.598;7.668;2023-02-28T14:45:02;102289.25;;;11.23;32.25
29383;BME280;16365;51.598;7.668;2023-02-28T14:47:33;102278.97;;;11.23;32.20
29383;BME280;16365;51.598;7.668;2023-02-28T14:50:03;102279.78;;;11.24;32.20
29383;BME280;16365;51.598;7.668;2023-02-28T14:52:32;102274.53;;;11.22;31.90
29383;BME280;16365;51.598;7.668;2023-02-28T14:55:03;102264.25;;;11.23;32.41
29383;BME280;16365;51.598;7.668;2023-02-28T14:57:38;102279.03;;;11.18;31.74
29383;BME280;16365;51.598;7.668;2023-02-28T15:00:20;102274.31;;;11.19;31.86
29383;BME280;16365;51.598;7.668;2023-02-28T15:02:47;102269.00;;;11.22;32.34
29383;BME280;16365;51.598;7.668;2023-02-28T15:07:44;102273.72;;;11.22;31.80
29383;BME280;16365;51.598;7.668;2023-02-28T15:10:24;102275.19;;;11.14;31.00
29383;BME280;16365;51.598;7.668;2023-02-28T15:13:00;102266.59;;;11.11;31.27